Time;durP1;ratioP1;P1;durP2;ratioP2;P2;SDS_P1;SDS_P2;PMS_P1;PMS_P2;Temp;Humidity;BMP_temperature;BMP_pressure;BME280_temperature;BME280_humidity;BME280_pressure;Samples;Min_cycle;Max_cycle;Signal;HPM_P1;HPM_P2
2024/03/05 00:00:14;;;;;;;8.70;6.72;;;;;;;;;;5009042;28;20447;-65
2024/03/05 00:02:41;;;;;;;10.27;8.13;;;;;;;;;;5018511;28;20125;-65
2024/03/05 00:05:07;;;;;;;10.93;8.00;;;;;;;;;;5013665;28;20025;-65
2024/03/05 00:07:35;;;;;;;11.63;8.43;;;;;;;;;;5008407;28;20620;-65
2024/03/05 00:10:01;;;;;;;9.13;8.07;;;;;;;;;;5006065;28;20048;-65
2024/03/05 00:12:27;;;;;;;9.77;7.68;;;;;;;;;;5012612;28;20025;-66
2024/03/05 00:14:55;;;;;;;10.75;8.30;;;;;;;;;;5012691;28;20041;-65
2024/03/05 00:17:22;;;;;;;8.27;7.30;;;;;;;;;;5011971;28;20021;-64
2024/03/05 00:19:48;;;;;;;10.35;8.45;;;;;;;;;;5007086;28;20109;-65
2024/03/05 00:22:14;;;;;;;10.90;8.43;;;;;;;;;;5008766;28;20092;-65
2024/03/05 00:24:40;;;;;;;9.52;7.85;;;;;;;;;;5013149;28;20042;-66
2024/03/05 00:27:06;;;;;;;10.80;8.07;;;;;;;;;;5015761;28;20498;-65
2024/03/05 00:29:32;;;;;;;11.90;8.18;;;;;;;;;;5015766;28;20025;-65
2024/03/05 00:31:58;;;;;;;9.48;7.75;;;;;;;;;;5014886;28;20030;-65
2024/03/05 00:34:33;;;;;;;9.80;7.80;;;;;;;;;;5014527;28;20102;-65
2024/03/05 00:36:59;;;;;;;10.35;8.48;;;;;;;;;;5014960;28;20022;-65
2024/03/05 00:39:25;;;;;;;13.45;8.90;;;;;;;;;;5016436;28;20427;-65
2024/03/05 00:41:51;;;;;;;11.00;7.95;;;;;;;;;;4997321;28;20029;-65
2024/03/05 00:44:17;;;;;;;9.90;8.77;;;;;;;;;;5012795;28;20109;-65
2024/03/05 00:46:43;;;;;;;13.00;9.23;;;;;;;;;;5023163;28;20456;-65
2024/03/05 00:49:09;;;;;;;12.38;8.70;;;;;;;;;;5014543;28;20029;-65
2024/03/05 00:51:35;;;;;;;9.43;8.18;;;;;;;;;;5014651;28;20152;-65
2024/03/05 00:54:01;;;;;;;8.75;7.35;;;;;;;;;;5014603;28;20060;-65
2024/03/05 00:56:29;;;;;;;9.18;7.97;;;;;;;;;;5014561;28;20469;-65
2024/03/05 00:58:56;;;;;;;10.23;8.50;;;;;;;;;;5014492;28;20055;-65
2024/03/05 01:01:22;;;;;;;10.88;7.55;;;;;;;;;;5016989;28;20021;-65
2024/03/05 01:03:48;;;;;;;7.78;6.93;;;;;;;;;;5013198;28;20037;-65
2024/03/05 01:06:14;;;;;;;12.07;8.10;;;;;;;;;;5014641;28;20025;-65
2024/03/05 01:08:40;;;;;;;8.45;7.38;;;;;;;;;;5014306;28;20026;-65
2024/03/05 01:11:07;;;;;;;9.80;7.78;;;;;;;;;;5014205;28;20025;-64
2024/03/05 01:13:33;;;;;;;10.70;8.30;;;;;;;;;;5012672;28;20018;-65
2024/03/05 01:15:59;;;;;;;10.43;8.18;;;;;;;;;;5007076;28;20029;-64
2024/03/05 01:18:26;;;;;;;9.38;7.72;;;;;;;;;;5007572;28;20027;-64
2024/03/05 01:20:53;;;;;;;8.13;7.32;;;;;;;;;;5005712;28;20396;-64
2024/03/05 01:23:19;;;;;;;11.63;8.15;;;;;;;;;;5013681;28;20050;-66
2024/03/05 01:25:45;;;;;;;9.73;8.00;;;;;;;;;;5014030;28;20026;-64
2024/03/05 01:28:11;;;;;;;10.05;7.78;;;;;;;;;;5017744;28;20025;-65
2024/03/05 01:30:39;;;;;;;10.27;7.75;;;;;;;;;;5012700;28;20036;-65
2024/03/05 01:33:09;;;;;;;10.80;7.40;;;;;;;;;;5013895;28;20030;-65
2024/03/05 01:35:37;;;;;;;10.88;7.38;;;;;;;;;;5019529;28;20129;-65
2024/03/05 01:38:03;;;;;;;10.27;8.00;;;;;;;;;;5013777;28;20487;-65
2024/03/05 01:40:29;;;;;;;8.77;7.30;;;;;;;;;;5013916;28;20123;-65
2024/03/05 01:42:55;;;;;;;7.88;7.05;;;;;;;;;;5011994;28;20427;-66
2024/03/05 01:45:21;;;;;;;8.38;6.65;;;;;;;;;;5011602;28;20030;-65
2024/03/05 01:48:09;;;;;;;9.50;7.03;;;;;;;;;;5013416;28;20042;-65
2024/03/05 01:50:35;;;;;;;7.45;6.70;;;;;;;;;;5010779;28;20030;-65
2024/03/05 01:53:03;;;;;;;7.78;6.90;;;;;;;;;;5006323;28;20067;-65
2024/03/05 01:55:29;;;;;;;7.95;6.15;;;;;;;;;;5008505;28;20022;-65
2024/03/05 01:57:57;;;;;;;6.30;5.57;;;;;;;;;;5013742;28;20079;-66
2024/03/05 02:00:23;;;;;;;7.55;5.13;;;;;;;;;;5013438;28;20049;-66
2024/03/05 02:08:56;;;;;;;8.15;5.88;;;;;;;;;;5006428;28;20855;-66
2024/03/05 02:11:22;;;;;;;7.20;6.13;;;;;;;;;;5011017;28;20113;-66
2024/03/05 02:13:48;;;;;;;8.10;6.72;;;;;;;;;;5010003;28;20088;-66
2024/03/05 02:16:14;;;;;;;6.75;5.78;;;;;;;;;;5011036;28;20475;-66
2024/03/05 02:18:40;;;;;;;14.52;6.88;;;;;;;;;;5013233;28;20026;-66
2024/03/05 02:21:06;;;;;;;8.77;6.10;;;;;;;;;;5013367;28;20133;-66
2024/03/05 02:23:35;;;;;;;13.02;7.30;;;;;;;;;;5012492;28;20105;-65
2024/03/05 02:26:02;;;;;;;10.60;7.30;;;;;;;;;;5018251;28;20124;-66
2024/03/05 02:28:28;;;;;;;10.88;6.68;;;;;;;;;;5007404;28;20021;-65
2024/03/05 02:30:54;;;;;;;9.30;6.90;;;;;;;;;;5012850;28;20022;-66
2024/03/05 02:33:20;;;;;;;11.73;7.40;;;;;;;;;;5012115;28;20120;-65
2024/03/05 02:35:48;;;;;;;10.02;6.90;;;;;;;;;;5012988;28;20025;-66
2024/03/05 02:38:14;;;;;;;11.13;8.07;;;;;;;;;;5013176;28;20038;-66
2024/03/05 02:40:40;;;;;;;8.63;7.72;;;;;;;;;;5013091;28;20361;-65
2024/03/05 02:43:06;;;;;;;9.30;7.15;;;;;;;;;;5012725;28;20045;-65
2024/03/05 02:45:33;;;;;;;11.02;7.68;;;;;;;;;;5001444;28;20053;-65
2024/03/05 02:48:05;;;;;;;13.95;7.80;;;;;;;;;;5012354;28;20036;-65
2024/03/05 02:50:31;;;;;;;8.70;6.70;;;;;;;;;;5012419;28;20048;-65
2024/03/05 02:52:57;;;;;;;9.50;7.18;;;;;;;;;;5012147;28;20539;-65
2024/03/05 02:55:23;;;;;;;8.38;7.22;;;;;;;;;;5012604;28;20108;-65
2024/03/05 02:57:49;;;;;;;12.93;8.02;;;;;;;;;;5019577;28;20117;-65
2024/03/05 03:00:24;;;;;;;8.95;7.53;;;;;;;;;;5012293;28;20113;-65
2024/03/05 03:02:53;;;;;;;10.43;7.80;;;;;;;;;;5012277;28;20052;-65
2024/03/05 03:05:22;;;;;;;8.25;7.40;;;;;;;;;;5012173;28;20049;-65
2024/03/05 03:07:48;;;;;;;10.70;7.13;;;;;;;;;;5012418;28;20149;-65
2024/03/05 03:10:14;;;;;;;7.82;6.82;;;;;;;;;;5008582;28;20089;-65
2024/03/05 03:12:41;;;;;;;13.70;7.88;;;;;;;;;;5013744;28;20480;-65
2024/03/05 03:15:07;;;;;;;8.48;7.00;;;;;;;;;;5012178;28;20034;-65
2024/03/05 03:17:34;;;;;;;9.25;7.50;;;;;;;;;;5012210;28;20021;-65
2024/03/05 03:20:00;;;;;;;9.15;6.70;;;;;;;;;;5012056;28;20488;-65
2024/03/05 03:22:27;;;;;;;10.57;7.40;;;;;;;;;;5011980;28;20025;-65
2024/03/05 03:24:57;;;;;;;10.80;7.60;;;;;;;;;;5006907;28;20089;-65
2024/03/05 03:27:24;;;;;;;15.85;7.85;;;;;;;;;;5012321;28;20022;-65
2024/03/05 03:29:50;;;;;;;12.10;7.60;;;;;;;;;;5021881;28;20033;-65
2024/03/05 03:32:16;;;;;;;9.52;8.45;;;;;;;;;;5012057;28;20387;-65
2024/03/05 03:34:42;;;;;;;9.30;7.50;;;;;;;;;;5012063;28;20022;-65
2024/03/05 03:37:08;;;;;;;8.00;7.20;;;;;;;;;;5011979;28;20492;-65
2024/03/05 03:39:35;;;;;;;13.35;8.85;;;;;;;;;;5007539;28;20054;-65
2024/03/05 03:42:01;;;;;;;11.77;8.52;;;;;;;;;;5006678;28;20045;-65
2024/03/05 03:47:30;;;;;;;14.13;9.10;;;;;;;;;;5009289;28;20029;-65
2024/03/05 03:49:58;;;;;;;10.95;9.43;;;;;;;;;;5012019;28;20030;-65
2024/03/05 03:52:24;;;;;;;10.55;8.70;;;;;;;;;;5011422;28;20117;-65
2024/03/05 03:57:53;;;;;;;11.05;9.95;;;;;;;;;;5012039;28;20036;-65
2024/03/05 04:00:25;;;;;;;12.57;9.85;;;;;;;;;;5017138;28;20021;-65
2024/03/05 04:02:52;;;;;;;16.45;10.65;;;;;;;;;;5010408;28;20033;-65
2024/03/05 04:05:18;;;;;;;11.82;9.80;;;;;;;;;;5011840;28;20026;-65
2024/03/05 04:07:44;;;;;;;10.52;9.32;;;;;;;;;;5011889;28;20432;-65
2024/03/05 04:10:10;;;;;;;14.05;10.13;;;;;;;;;;5013454;28;20034;-65
2024/03/05 04:12:36;;;;;;;14.40;10.48;;;;;;;;;;5015617;28;20033;-65
2024/03/05 04:15:08;;;;;;;11.70;10.30;;;;;;;;;;5017440;28;20117;-65
2024/03/05 04:17:36;;;;;;;10.88;9.77;;;;;;;;;;5021516;28;20044;-65
2024/03/05 04:20:03;;;;;;;17.75;10.50;;;;;;;;;;5015384;28;20029;-65
2024/03/05 04:22:29;;;;;;;12.70;9.68;;;;;;;;;;5015370;28;20124;-65
2024/03/05 04:24:56;;;;;;;13.00;9.88;;;;;;;;;;5014724;28;20129;-65
2024/03/05 04:27:24;;;;;;;14.25;10.02;;;;;;;;;;5015368;28;20033;-65
2024/03/05 04:29:59;;;;;;;11.60;10.43;;;;;;;;;;5015104;28;20095;-65
2024/03/05 04:32:26;;;;;;;14.27;11.00;;;;;;;;;;5013587;28;21114;-65
2024/03/05 04:35:00;;;;;;;12.68;10.45;;;;;;;;;;5008433;28;20054;-65
2024/03/05 04:37:32;;;;;;;11.67;10.47;;;;;;;;;;5008286;28;20506;-65
2024/03/05 04:40:15;;;;;;;12.00;10.60;;;;;;;;;;5011620;28;20283;-65
2024/03/05 04:42:41;;;;;;;11.50;10.07;;;;;;;;;;5007125;28;20046;-65
2024/03/05 04:45:08;;;;;;;14.05;10.85;;;;;;;;;;5013519;28;20029;-65
2024/03/05 04:47:35;;;;;;;12.07;10.82;;;;;;;;;;5010675;28;20049;-66
2024/03/05 04:50:01;;;;;;;13.63;12.27;;;;;;;;;;5013580;28;20022;-66
2024/03/05 04:52:27;;;;;;;15.38;11.05;;;;;;;;;;5010628;28;20022;-65
2024/03/05 04:54:54;;;;;;;12.00;10.75;;;;;;;;;;5007386;28;20032;-66
2024/03/05 04:57:20;;;;;;;14.13;11.70;;;;;;;;;;5014441;28;20079;-66
2024/03/05 04:59:46;;;;;;;14.43;11.35;;;;;;;;;;5014908;28;20056;-66
2024/03/05 05:05:16;;;;;;;15.20;12.23;;;;;;;;;;5004836;28;20037;-65
2024/03/05 05:07:43;;;;;;;14.48;11.63;;;;;;;;;;5007584;28;20030;-65
2024/03/05 05:10:09;;;;;;;12.88;11.35;;;;;;;;;;5014327;28;20091;-65
2024/03/05 05:12:35;;;;;;;13.38;11.90;;;;;;;;;;4999065;28;20026;-65
2024/03/05 05:15:02;;;;;;;15.30;12.50;;;;;;;;;;5012501;28;20497;-65
2024/03/05 05:17:28;;;;;;;14.15;11.15;;;;;;;;;;5013938;28;20080;-65
2024/03/05 05:19:54;;;;;;;12.30;10.98;;;;;;;;;;5013667;28;20033;-65
2024/03/05 05:22:20;;;;;;;12.60;11.30;;;;;;;;;;5013455;28;20042;-65
2024/03/05 05:24:46;;;;;;;14.38;11.15;;;;;;;;;;5012679;28;20121;-66
2024/03/05 05:27:16;;;;;;;11.40;10.20;;;;;;;;;;5013898;28;20142;-65
2024/03/05 05:29:42;;;;;;;13.43;10.52;;;;;;;;;;5000591;28;20343;-65
2024/03/05 05:32:08;;;;;;;14.50;11.63;;;;;;;;;;5014277;28;20018;-65
2024/03/05 05:34:34;;;;;;;14.98;10.55;;;;;;;;;;5013839;28;20034;-65
2024/03/05 05:37:00;;;;;;;13.13;11.25;;;;;;;;;;5013453;28;20018;-64
2024/03/05 05:39:27;;;;;;;12.40;10.27;;;;;;;;;;5013455;28;20116;-64
2024/03/05 05:41:54;;;;;;;14.02;10.88;;;;;;;;;;5013582;28;20022;-64
2024/03/05 05:44:20;;;;;;;13.32;10.80;;;;;;;;;;5013562;28;20037;-64
2024/03/05 05:46:46;;;;;;;12.95;11.60;;;;;;;;;;5013565;28;20388;-66
2024/03/05 05:49:19;;;;;;;12.77;11.30;;;;;;;;;;5013909;28;20067;-65
2024/03/05 05:51:45;;;;;;;13.00;11.40;;;;;;;;;;5013170;28;20101;-65
2024/03/05 05:54:11;;;;;;;12.95;11.63;;;;;;;;;;5013104;28;20062;-65
2024/03/05 05:56:37;;;;;;;13.00;10.80;;;;;;;;;;5011459;28;20038;-65
2024/03/05 05:59:08;;;;;;;13.55;11.98;;;;;;;;;;5013335;28;20026;-65
2024/03/05 06:01:37;;;;;;;15.00;11.70;;;;;;;;;;5013423;28;20033;-65
2024/03/05 06:04:06;;;;;;;11.93;10.38;;;;;;;;;;5013223;28;20499;-65
2024/03/05 06:06:32;;;;;;;12.15;10.80;;;;;;;;;;5013225;28;20049;-64
2024/03/05 06:08:58;;;;;;;13.48;11.27;;;;;;;;;;5013371;28;20026;-64
2024/03/05 06:11:24;;;;;;;14.23;12.43;;;;;;;;;;5012856;28;20041;-65
2024/03/05 06:13:50;;;;;;;13.32;11.63;;;;;;;;;;5012765;28;20026;-65
2024/03/05 06:28:44;;;;;;;14.35;11.48;;;;;;;;;;4985927;28;20065;-66
2024/03/05 06:31:10;;;;;;;15.25;10.60;;;;;;;;;;5000465;28;20026;-66
2024/03/05 06:33:38;;;;;;;12.85;11.07;;;;;;;;;;5012586;28;20113;-66
2024/03/05 06:36:06;;;;;;;14.02;10.70;;;;;;;;;;5012660;28;20022;-66
2024/03/05 06:38:35;;;;;;;15.55;11.60;;;;;;;;;;5007668;28;20029;-66
2024/03/05 06:44:11;;;;;;;14.02;11.23;;;;;;;;;;5011866;28;20435;-66
2024/03/05 06:46:41;;;;;;;16.52;10.88;;;;;;;;;;5011242;28;20051;-66
2024/03/05 06:49:08;;;;;;;11.70;10.50;;;;;;;;;;5011313;28;20036;-67
2024/03/05 06:51:41;;;;;;;14.35;10.85;;;;;;;;;;5012629;28;20447;-66
2024/03/05 06:56:52;;;;;;;;;;;;;;;;;;5013133;28;20037;-66
2024/03/05 06:59:19;;;;;;;14.43;11.02;;;;;;;;;;5012652;28;19905;-66
2024/03/05 07:01:45;;;;;;;11.40;10.10;;;;;;;;;;5012261;28;20034;-67
2024/03/05 07:04:11;;;;;;;13.82;11.30;;;;;;;;;;5012345;28;20022;-66
2024/03/05 07:06:37;;;;;;;11.88;9.73;;;;;;;;;;5010534;28;20560;-66
2024/03/05 07:09:03;;;;;;;11.35;9.73;;;;;;;;;;5012555;28;20046;-66
2024/03/05 07:14:32;;;;;;;12.23;10.18;;;;;;;;;;4998355;28;20061;-66
2024/03/05 07:16:58;;;;;;;12.95;10.65;;;;;;;;;;5009003;28;20480;-66
2024/03/05 07:19:24;;;;;;;14.77;10.52;;;;;;;;;;5011090;28;20096;-66
2024/03/05 07:21:52;;;;;;;13.50;10.25;;;;;;;;;;5012283;28;20133;-66
2024/03/05 07:24:18;;;;;;;11.75;9.73;;;;;;;;;;5010547;28;20033;-66
2024/03/05 07:26:44;;;;;;;13.15;10.18;;;;;;;;;;5012623;28;20018;-66
2024/03/05 07:29:22;;;;;;;16.52;10.23;;;;;;;;;;5011790;28;20109;-66
2024/03/05 07:34:51;;;;;;;11.93;9.30;;;;;;;;;;5002419;28;20230;-66
2024/03/05 07:37:18;;;;;;;12.48;10.35;;;;;;;;;;5011081;28;20492;-66
2024/03/05 07:39:47;;;;;;;13.20;10.00;;;;;;;;;;5012388;28;20029;-66
2024/03/05 07:42:13;;;;;;;11.70;10.52;;;;;;;;;;5012158;28;20057;-66
2024/03/05 07:44:39;;;;;;;10.60;9.50;;;;;;;;;;5013894;28;20471;-66
2024/03/05 07:47:05;;;;;;;12.57;10.70;;;;;;;;;;5015871;28;20025;-53
2024/03/05 07:49:31;;;;;;;13.75;10.82;;;;;;;;;;5012316;28;20050;-50
2024/03/05 07:51:56;;;;;;;15.32;10.38;;;;;;;;;;5015599;28;20036;-54
2024/03/05 07:54:22;;;;;;;17.10;10.45;;;;;;;;;;5015860;28;20026;-52
2024/03/05 07:56:48;;;;;;;12.88;11.13;;;;;;;;;;5015668;28;20464;-52
2024/03/05 07:59:14;;;;;;;14.82;10.40;;;;;;;;;;5015512;28;20033;-52
2024/03/05 08:01:40;;;;;;;10.23;9.23;;;;;;;;;;5015462;28;20026;-50
2024/03/05 08:04:07;;;;;;;13.77;9.18;;;;;;;;;;5015627;28;20342;-50
2024/03/05 08:06:33;;;;;;;10.70;8.95;;;;;;;;;;5010049;28;20027;-52
2024/03/05 08:08:59;;;;;;;16.13;10.23;;;;;;;;;;5014005;28;20472;-50
2024/03/05 08:11:25;;;;;;;12.63;10.00;;;;;;;;;;5015364;28;20026;-48
2024/03/05 08:13:51;;;;;;;12.57;9.10;;;;;;;;;;5011993;28;20042;-52
2024/03/05 08:16:17;;;;;;;11.02;8.05;;;;;;;;;;5022231;28;20114;-52
2024/03/05 08:18:43;;;;;;;11.95;8.82;;;;;;;;;;5015425;28;20439;-53
2024/03/05 08:21:09;;;;;;;10.63;8.27;;;;;;;;;;5013862;28;20444;-53
2024/03/05 08:23:35;;;;;;;9.43;8.30;;;;;;;;;;5015039;28;20124;-54
2024/03/05 08:26:02;;;;;;;12.10;8.98;;;;;;;;;;5015055;28;20033;-52
2024/03/05 08:28:29;;;;;;;10.25;9.13;;;;;;;;;;5013432;28;20064;-51
2024/03/05 08:30:55;;;;;;;13.07;8.52;;;;;;;;;;5013549;28;20025;-53
2024/03/05 08:33:23;;;;;;;13.15;9.30;;;;;;;;;;5015077;28;20113;-54
2024/03/05 08:35:49;;;;;;;11.48;9.45;;;;;;;;;;5013518;28;20208;-54
2024/03/05 08:38:15;;;;;;;11.02;9.10;;;;;;;;;;5014889;28;20093;-52
2024/03/05 08:40:41;;;;;;;11.77;8.80;;;;;;;;;;5014623;28;20034;-52
2024/03/05 08:43:09;;;;;;;15.75;8.18;;;;;;;;;;5014340;28;20042;-52
2024/03/05 08:45:36;;;;;;;13.27;9.02;;;;;;;;;;5014237;28;20092;-54
2024/03/05 08:48:03;;;;;;;11.35;7.80;;;;;;;;;;5014597;28;20085;-53
2024/03/05 08:50:29;;;;;;;10.32;8.50;;;;;;;;;;5011203;28;20038;-53
2024/03/05 08:52:58;;;;;;;11.65;8.95;;;;;;;;;;5014149;28;20113;-53
2024/03/05 08:55:52;;;;;;;14.45;9.43;;;;;;;;;;5013778;28;20538;-52
2024/03/05 08:58:18;;;;;;;12.73;8.90;;;;;;;;;;4997436;28;20084;-52
2024/03/05 09:00:45;;;;;;;10.75;8.80;;;;;;;;;;5013430;28;20430;-52
2024/03/05 09:03:11;;;;;;;14.73;9.45;;;;;;;;;;5024486;28;20634;-53
2024/03/05 09:05:37;;;;;;;11.27;9.02;;;;;;;;;;5008740;28;20034;-54
2024/03/05 09:08:04;;;;;;;12.15;8.45;;;;;;;;;;5009854;28;20026;-53
2024/03/05 09:10:31;;;;;;;12.50;7.15;;;;;;;;;;5012863;28;20564;-52
2024/03/05 09:12:58;;;;;;;9.32;7.05;;;;;;;;;;5009961;28;20026;-52
2024/03/05 09:15:25;;;;;;;10.05;6.72;;;;;;;;;;5009315;28;20034;-54
2024/03/05 09:17:52;;;;;;;10.75;6.50;;;;;;;;;;5011755;28;20096;-51
2024/03/05 09:20:18;;;;;;;10.95;7.50;;;;;;;;;;5010718;28;20428;-52
2024/03/05 09:22:44;;;;;;;9.52;7.22;;;;;;;;;;5011246;28;20133;-48
2024/03/05 09:25:12;;;;;;;9.43;8.05;;;;;;;;;;5009646;28;20097;-54
2024/03/05 09:27:38;;;;;;;14.60;6.68;;;;;;;;;;5012958;28;20026;-52
2024/03/05 09:30:08;;;;;;;11.77;6.30;;;;;;;;;;5006258;28;20105;-48
2024/03/05 09:32:34;;;;;;;8.52;5.95;;;;;;;;;;5013531;28;20148;-49
2024/03/05 09:35:00;;;;;;;10.25;6.93;;;;;;;;;;5013407;28;20499;-49
2024/03/05 09:37:29;;;;;;;8.35;5.75;;;;;;;;;;5013680;28;20029;-49
2024/03/05 09:39:55;;;;;;;8.27;5.90;;;;;;;;;;5013557;28;20108;-49
2024/03/05 09:42:21;;;;;;;7.95;5.75;;;;;;;;;;5011550;28;20121;-54
2024/03/05 09:44:52;;;;;;;9.23;5.35;;;;;;;;;;5013711;28;20034;-50
2024/03/05 09:50:22;;;;;;;7.22;4.60;;;;;;;;;;5006101;28;20044;-54
2024/03/05 09:52:48;;;;;;;10.25;4.80;;;;;;;;;;5013447;28;20014;-49
2024/03/05 09:55:15;;;;;;;6.82;4.80;;;;;;;;;;5012859;28;20052;-49
2024/03/05 09:57:41;;;;;;;6.90;4.60;;;;;;;;;;5011596;28;20041;-48
2024/03/05 10:00:10;;;;;;;8.45;3.83;;;;;;;;;;5012808;28;20065;-51
2024/03/05 10:02:38;;;;;;;6.55;4.20;;;;;;;;;;5012395;28;20471;-48
2024/03/05 10:05:06;;;;;;;5.30;3.70;;;;;;;;;;5012982;28;20029;-49
2024/03/05 10:07:34;;;;;;;5.32;3.88;;;;;;;;;;5010634;28;20061;-48
2024/03/05 10:10:04;;;;;;;6.53;3.55;;;;;;;;;;5012477;28;20022;-47
2024/03/05 10:12:30;;;;;;;6.63;3.72;;;;;;;;;;5013286;28;20121;-49
2024/03/05 10:15:10;;;;;;;4.72;3.50;;;;;;;;;;5012286;28;20461;-51
2024/03/05 10:17:49;;;;;;;9.30;3.08;;;;;;;;;;5011588;28;20056;-48
2024/03/05 10:20:26;;;;;;;5.65;3.40;;;;;;;;;;5012676;28;20072;-49
2024/03/05 10:22:52;;;;;;;5.85;3.35;;;;;;;;;;5009607;28;20046;-48
2024/03/05 10:25:18;;;;;;;5.47;3.40;;;;;;;;;;5012656;28;20129;-49
2024/03/05 10:27:47;;;;;;;5.07;3.33;;;;;;;;;;5011945;28;20108;-47
2024/03/05 10:30:20;;;;;;;6.93;3.60;;;;;;;;;;5012411;28;20030;-47
2024/03/05 10:32:52;;;;;;;6.85;3.90;;;;;;;;;;5011351;28;20077;-48
2024/03/05 10:35:18;;;;;;;5.25;4.00;;;;;;;;;;5008134;28;20026;-50
2024/03/05 10:37:44;;;;;;;6.63;3.97;;;;;;;;;;5012453;28;20387;-48
2024/03/05 10:40:11;;;;;;;7.47;3.90;;;;;;;;;;5010991;28;20400;-48
2024/03/05 10:42:38;;;;;;;6.90;3.83;;;;;;;;;;5010442;28;20050;-48
2024/03/05 10:45:09;;;;;;;6.65;4.47;;;;;;;;;;5012354;28;20026;-50
2024/03/05 10:47:36;;;;;;;6.60;4.53;;;;;;;;;;5007591;28;20483;-48
2024/03/05 10:50:03;;;;;;;6.18;4.28;;;;;;;;;;5008876;28;20069;-48
2024/03/05 10:52:30;;;;;;;5.65;4.47;;;;;;;;;;5012111;28;20094;-49
2024/03/05 10:54:57;;;;;;;6.68;4.20;;;;;;;;;;5012510;28;20049;-51
2024/03/05 10:57:28;;;;;;;5.22;4.18;;;;;;;;;;5012259;28;20029;-47
2024/03/05 10:59:57;;;;;;;4.90;4.05;;;;;;;;;;5012496;28;20034;-53
2024/03/05 11:02:27;;;;;;;8.70;4.53;;;;;;;;;;5011979;28;20442;-50
2024/03/05 11:04:53;;;;;;;8.63;4.40;;;;;;;;;;5012599;28;20476;-54
2024/03/05 11:07:22;;;;;;;4.88;4.25;;;;;;;;;;5013723;28;20057;-51
2024/03/05 11:09:49;;;;;;;7.10;4.20;;;;;;;;;;4999837;28;20026;-51
2024/03/05 11:12:18;;;;;;;5.65;4.25;;;;;;;;;;5011449;28;20032;-55
2024/03/05 11:14:45;;;;;;;5.57;3.80;;;;;;;;;;5005338;28;20113;-50
2024/03/05 11:17:12;;;;;;;7.35;4.22;;;;;;;;;;5012752;28;20030;-54
2024/03/05 11:19:41;;;;;;;6.72;4.40;;;;;;;;;;5014756;28;20033;-50
2024/03/05 11:22:22;;;;;;;10.38;4.03;;;;;;;;;;5016503;28;20514;-49
2024/03/05 11:24:51;;;;;;;7.20;4.45;;;;;;;;;;5016419;28;20029;-54
2024/03/05 11:27:24;;;;;;;6.13;4.28;;;;;;;;;;5016688;28;20025;-50
2024/03/05 11:29:59;;;;;;;6.60;4.07;;;;;;;;;;5016274;28;20046;-52
2024/03/05 11:32:28;;;;;;;8.52;4.70;;;;;;;;;;5016208;28;20026;-51
2024/03/05 11:35:16;;;;;;;7.00;5.20;;;;;;;;;;5016260;28;20073;-51
2024/03/05 11:37:52;;;;;;;9.52;6.18;;;;;;;;;;5003406;28;20034;-50
2024/03/05 11:40:21;;;;;;;11.88;6.85;;;;;;;;;;5016163;28;20026;-50
2024/03/05 11:42:47;;;;;;;8.02;6.32;;;;;;;;;;5016125;28;20484;-54
2024/03/05 11:45:33;;;;;;;10.73;6.38;;;;;;;;;;5014731;28;20048;-51
2024/03/05 11:47:59;;;;;;;10.57;7.07;;;;;;;;;;5004512;28;20080;-52
2024/03/05 11:50:25;;;;;;;7.68;6.03;;;;;;;;;;5015901;28;20042;-49
2024/03/05 11:52:51;;;;;;;10.98;6.28;;;;;;;;;;5015842;28;20550;-50
2024/03/05 11:55:25;;;;;;;7.68;6.53;;;;;;;;;;5015880;28;20030;-53
2024/03/05 11:57:57;;;;;;;7.82;6.45;;;;;;;;;;5007695;28;20029;-52
2024/03/05 12:00:23;;;;;;;9.05;6.40;;;;;;;;;;5016112;28;20353;-49
2024/03/05 12:02:52;;;;;;;7.95;6.38;;;;;;;;;;5001715;28;20035;-51
2024/03/05 12:05:19;;;;;;;6.85;6.25;;;;;;;;;;5002326;28;20472;-52
2024/03/05 12:07:58;;;;;;;9.90;7.05;;;;;;;;;;5016019;28;20113;-51
2024/03/05 12:10:27;;;;;;;9.32;7.47;;;;;;;;;;5002501;28;20372;-54
2024/03/05 12:12:53;;;;;;;10.40;7.35;;;;;;;;;;5011091;28;20026;-52
2024/03/05 12:15:20;;;;;;;9.18;6.95;;;;;;;;;;5014229;28;20021;-48
2024/03/05 12:17:47;;;;;;;9.57;7.40;;;;;;;;;;5014060;28;20108;-48
2024/03/05 12:20:13;;;;;;;8.57;7.07;;;;;;;;;;5015290;28;20383;-52
2024/03/05 12:22:41;;;;;;;12.57;7.38;;;;;;;;;;5015541;28;20042;-49
2024/03/05 12:25:08;;;;;;;9.90;6.88;;;;;;;;;;5015153;28;20026;-48
2024/03/05 12:27:35;;;;;;;7.80;6.93;;;;;;;;;;5015313;28;20018;-48
2024/03/05 12:30:01;;;;;;;10.40;7.18;;;;;;;;;;5011517;28;20050;-49
2024/03/05 12:32:27;;;;;;;9.60;6.13;;;;;;;;;;5015040;28;20026;-51
2024/03/05 12:34:53;;;;;;;9.10;7.22;;;;;;;;;;5015329;28;20031;-51
2024/03/05 12:40:28;;;;;;;10.52;6.32;;;;;;;;;;5003052;28;20137;-52
2024/03/05 12:43:04;;;;;;;8.60;6.47;;;;;;;;;;5014002;28;20049;-50
2024/03/05 12:48:37;;;;;;;7.13;6.03;;;;;;;;;;5003985;28;20954;-48
2024/03/05 12:51:03;;;;;;;10.27;7.10;;;;;;;;;;5007406;28;20484;-54
2024/03/05 12:53:29;;;;;;;8.52;7.43;;;;;;;;;;5013243;28;20068;-49
2024/03/05 12:56:02;;;;;;;15.10;8.35;;;;;;;;;;5014653;28;20032;-48
2024/03/05 12:58:39;;;;;;;10.25;7.78;;;;;;;;;;5014850;28;20022;-51
2024/03/05 13:01:05;;;;;;;11.52;7.65;;;;;;;;;;5014456;28;20500;-49
2024/03/05 13:03:31;;;;;;;8.80;6.55;;;;;;;;;;5013203;28;20045;-49
2024/03/05 13:05:57;;;;;;;8.25;7.03;;;;;;;;;;5014505;28;20022;-49
2024/03/05 13:08:23;;;;;;;10.57;7.30;;;;;;;;;;5013441;28;20091;-49
2024/03/05 13:10:49;;;;;;;10.13;6.80;;;;;;;;;;5014523;28;20052;-48
2024/03/05 13:13:21;;;;;;;9.55;6.43;;;;;;;;;;5014609;28;20072;-51
2024/03/05 13:15:47;;;;;;;8.23;5.13;;;;;;;;;;5013077;28;20491;-51
2024/03/05 13:18:13;;;;;;;7.32;4.90;;;;;;;;;;5014230;28;20053;-49
2024/03/05 13:20:40;;;;;;;9.85;5.70;;;;;;;;;;5014551;28;20056;-49
2024/03/05 13:23:07;;;;;;;9.05;5.47;;;;;;;;;;5012660;28;20399;-49
2024/03/05 13:25:33;;;;;;;8.68;5.70;;;;;;;;;;5014185;28;20017;-49
2024/03/05 13:28:00;;;;;;;8.38;6.07;;;;;;;;;;5013932;28;20145;-52
2024/03/05 13:30:26;;;;;;;8.73;5.45;;;;;;;;;;5014044;28;20045;-48
2024/03/05 13:32:56;;;;;;;5.75;4.40;;;;;;;;;;5013975;28;20472;-54
2024/03/05 13:35:22;;;;;;;7.45;4.47;;;;;;;;;;5013872;28;20036;-49
2024/03/05 13:37:48;;;;;;;9.02;4.63;;;;;;;;;;5014223;28;20113;-49
2024/03/05 13:40:19;;;;;;;10.45;4.50;;;;;;;;;;5013003;28;20460;-54
2024/03/05 13:42:45;;;;;;;7.00;5.32;;;;;;;;;;4999791;28;20033;-52
2024/03/05 13:45:18;;;;;;;8.00;5.32;;;;;;;;;;5006445;28;20136;-52
2024/03/05 13:47:44;;;;;;;6.80;4.72;;;;;;;;;;5022761;28;20379;-54
2024/03/05 13:50:11;;;;;;;10.32;5.07;;;;;;;;;;5008499;28;20021;-55
2024/03/05 13:52:41;;;;;;;6.35;5.43;;;;;;;;;;5007460;28;20026;-52
2024/03/05 13:55:07;;;;;;;9.45;5.35;;;;;;;;;;5009798;28;20480;-55
2024/03/05 13:57:34;;;;;;;6.90;4.45;;;;;;;;;;5011673;28;20025;-53
2024/03/05 14:00:00;;;;;;;10.93;5.25;;;;;;;;;;5006924;28;20014;-50
2024/03/05 14:02:26;;;;;;;7.55;4.20;;;;;;;;;;4999703;28;20057;-51
2024/03/05 14:04:56;;;;;;;7.85;3.50;;;;;;;;;;5008734;28;20018;-53
2024/03/05 14:07:22;;;;;;;6.07;4.15;;;;;;;;;;5011425;28;20041;-52
2024/03/05 14:09:48;;;;;;;8.48;4.07;;;;;;;;;;5012896;28;20034;-52
2024/03/05 14:12:16;;;;;;;7.20;3.88;;;;;;;;;;5008369;28;20021;-54
2024/03/05 14:14:43;;;;;;;8.02;3.85;;;;;;;;;;5005789;28;20476;-53
2024/03/05 14:17:09;;;;;;;7.10;4.30;;;;;;;;;;5013313;28;20034;-53
2024/03/05 14:19:38;;;;;;;9.45;3.65;;;;;;;;;;5013099;28;20033;-55
2024/03/05 14:22:04;;;;;;;6.90;3.63;;;;;;;;;;5011197;28;20387;-56
2024/03/05 14:24:30;;;;;;;5.60;3.22;;;;;;;;;;5001344;28;20026;-55
2024/03/05 14:26:57;;;;;;;6.38;3.63;;;;;;;;;;5013293;28;20125;-56
2024/03/05 14:29:23;;;;;;;5.82;3.10;;;;;;;;;;5012907;28;20120;-55
2024/03/05 14:31:49;;;;;;;3.53;2.60;;;;;;;;;;5012845;28;20032;-56
2024/03/05 14:34:15;;;;;;;5.55;3.10;;;;;;;;;;5012623;28;20018;-53
2024/03/05 14:36:42;;;;;;;5.85;3.30;;;;;;;;;;5013128;28;20088;-54
2024/03/05 14:39:14;;;;;;;5.03;3.47;;;;;;;;;;5012542;28;20022;-54
2024/03/05 14:41:40;;;;;;;6.40;3.60;;;;;;;;;;5011616;28;20053;-54
2024/03/05 14:44:10;;;;;;;4.95;3.20;;;;;;;;;;5012637;28;20076;-55
2024/03/05 14:46:45;;;;;;;5.65;3.55;;;;;;;;;;5012845;28;20041;-52
2024/03/05 14:49:11;;;;;;;3.47;2.75;;;;;;;;;;5008426;28;20021;-54
2024/03/05 14:51:38;;;;;;;5.03;2.70;;;;;;;;;;5011227;28;20140;-53
2024/03/05 14:54:04;;;;;;;7.20;3.42;;;;;;;;;;5012239;28;20026;-53
2024/03/05 14:56:34;;;;;;;3.28;2.55;;;;;;;;;;5011065;28;20538;-56
2024/03/05 14:59:00;;;;;;;4.22;2.72;;;;;;;;;;5011696;28;20022;-54
2024/03/05 15:01:26;;;;;;;5.28;2.65;;;;;;;;;;5011060;28;20038;-51
2024/03/05 15:03:52;;;;;;;7.40;3.05;;;;;;;;;;5010745;28;20095;-50
2024/03/05 15:06:18;;;;;;;5.60;2.88;;;;;;;;;;5012260;28;20033;-50
2024/03/05 15:08:53;;;;;;;3.38;2.55;;;;;;;;;;5012533;28;20025;-53
2024/03/05 15:11:19;;;;;;;5.80;2.90;;;;;;;;;;5012323;28;20468;-50
2024/03/05 15:13:45;;;;;;;6.10;2.92;;;;;;;;;;5012214;28;20444;-53
2024/03/05 15:16:11;;;;;;;6.47;2.70;;;;;;;;;;5010982;28;20116;-53
2024/03/05 15:18:39;;;;;;;5.00;3.13;;;;;;;;;;5012201;28;20391;-52
2024/03/05 15:21:09;;;;;;;5.28;2.40;;;;;;;;;;5007769;28;20077;-53
2024/03/05 15:23:35;;;;;;;3.67;2.72;;;;;;;;;;5012092;28;20049;-53